Ride Results

Q60 (03-05-2015)
Ride distance: 100.0 km Elevator

Outcomes - Q60 (03-05-2015)
Division No. of Entries Retired / DNE Completed Withdrawn Ineligible V/O Percentage Completed
HW 15 8 5 - 2 - 86.67%
MW 22 8 9 - - 5 77.27%
LW 8 2 3 2 - 1 62.50%
JN 2 1 1 - - - 100.00%
Totals 47 19 18 2 2 6 78.72%
Results - Q60 (03-05-2015)
No. Rider Horse Place Time Leg Speeds Total
Km/Hr
H/R bpm
Heavyweight
5 Con Bouzianis Conderosa Pegasus 1 (BC) 7:00:00 14.2, 13.6, 15.7 14.29 51, 42, 46, 44 (Avg:44)
34 Alan Mackinder Jezabelle Sweet Dreams 2 7:42:00 13.4, 11.4, 16.2 12.99 36, 45, 41, 42 (Avg:42)
29 Scott Peters Castlebar Icon 3 8:34:00 13.1, 10.8, 11.0 11.67 37, 40, 44, 45 (Avg:43)
13 Anthony Parker Webbs Creek Cattle Baron 4 10:37:00 10.1, 8.2, 11.1 9.42 37, 44, 48, 56 (Avg:49)
12 Heather Nagle Ejen Park Summer Tango 13 10:45:00 7.7, 7.1 7.44 46, 42, 47 (Avg:44)
40 Andrew Bailey Bullio Solute Retired/DNE L2 6:46:00 11.7, 11.9 11.82 32, 45, 56 (Avg:50)
24 Gary Pevy Halimas Esdikarn Retired/DNE L2 7:11:00 12.3, 10.1 11.14 40, 39, 41 (Avg:40)
38 Susan Luthy Mystical Knight Retired/DNE L2 7:16:00 12.5, 9.7 11.01 36, 43, 55 (Avg:49)
28 Robert Catlin Bendora Rafiki Retired/DNE L2 7:53:00 11.0, 9.3 10.15 33, 43, 49 (Avg:46)
43 Stuart Hitchcock Farras Retired/DNE L2 8:05:00 10.8, 9.1 9.90 38, 41, 47 (Avg:44)
36 Stuart Lymbery Aloha Typic Retired/DNE L2 8:11:00 10.3, 9.2 9.78 32, 35, 43 (Avg:39)
10 John Howe Ashbend Perazzi Retired/DNE L2 8:49:00 10.1, 8.2 9.07 34, 43, 53 (Avg:48)
47 Ian Dreghorn Ausden Nile Prins Retired/DNE L2 10:40:00 9.8, 6.0 7.50 39, 47, 54 (Avg:50)
30 Christopher Clarke Zastava Park Saruman 0:00:00 13.1 - 28, 39 (Avg:39)
35 Jack Johnson Sharahd Chemoss 0:00:00 12.7 - 29, 38 (Avg:38)
Middleweight
20 Georgia Curry Mountain Breeze Mingha 1 (BC) 7:49:00 13.1, 11.8, 14.1 12.79 29, 38, 44, 42 (Avg:41)
14 Emily Streckfuss Coolahlee Park Samba 2 7:53:00 11.9, 11.7, 17.6 12.68 40, 43, 47, 51 (Avg:47)
23 Debbie Pevy Just Cruzin 3 8:34:00 12.3, 10.1, 14.4 11.67 33, 40, 44, 51 (Avg:45)
1 Carol Major Saradon 4 8:55:00 11.7, 10.3, 12.1 11.21 36, 45, 51, 42 (Avg:46)
42 Michaela Araldi Girilambone Amahl 5 9:03:00 9.4, 11.1, 15.9 11.05 33, 43, 47, 43 (Avg:44)
41 Andrew Mackinder Annaliisa'ar 5 9:03:00 9.4, 11.1, 15.9 11.05 30, 36, 42, 39 (Avg:39)
18 Victoria Bonham Bridle Track Bogart 7 9:39:00 11.8, 8.8, 11.5 10.36 39, 48, 54, 54 (Avg:52)
19 Chris Noonan Bridle Track Tiara 7 9:39:00 11.8, 8.8, 11.5 10.36 32, 44, 50, 46 (Avg:46)
8 Tracey Morley Hampton Park Jack 16 10:45:00 7.7, 7.1 7.44 32, 41, 41 (Avg:41)
50 David Player Mirakhani Saa'meer Retired/DNE L2 7:16:00 12.5, 9.7 11.01 39, 46, 50 (Avg:48)
27 Darien Feary Avita Retired/DNE L2 7:53:00 11.0, 9.3 10.15 42, 44, 52 (Avg:48)
16 Terry Wood Tallawarra Chance Retired/DNE L2 7:54:00 10.5, 9.7 10.13 44, 46, 48 (Avg:47)
44 April Bonham Lyndrian Genesis Retired/DNE L2 8:05:00 10.8, 9.1 9.90 34, 49, 58 (Avg:53)
37 Anne Lymbery Garonne Park Walker Retired/DNE L2 8:11:00 10.3, 9.3 9.78 35, 44, 55 (Avg:49)
9 Jennifer Gilbertson Coolahlee Park Saraba Retired/DNE L2 8:17:00 10.3, 9.0 9.66 40, 46, 49 (Avg:47)
31 Meg Garzaniti Shanadarr Khaleel Retired/DNE L2 8:21:00 11.7, 8.0 9.58 44, 46, 55 (Avg:50)
45 Mary Symons Back Creek Karen Retired/DNE L2 10:50:00 7.9, 6.8 7.38 34, 40, 48 (Avg:44)
32 Darryl King James Bonn Heart Rate L2 0:00:00 13.4, 11.6 - 35, 47, 81 (Avg:64)
25 Ava Pellizzari Zzariava Valentino Heart Rate L2 0:00:00 10.6, 7.7 - 35, 53, 69 (Avg:61)
7 Tom Bouzianis Conderosa Millenium Silver Lame L1 0:00:00 14.2 - 34, 45 (Avg:45)
26 Leisa Neal Razorback Fire Wing Metabolics moderate L1 0:00:00 11.1 - 32, 54 (Avg:54)
33 Nicole Smith Skittles Heart Rate L1 0:00:00 12.4 - 32, 56 (Avg:56)
Lightweight
3 April Newman Tarnette 1 (BC) 7:42:00 13.4, 11.4, 16.2 12.99 30, 37, 43, 43 (Avg:41)
11 Sue Todd Shalacey Bear 2 8:55:00 11.7, 10.3, 12.1 11.21 32, 41, 50, 46 (Avg:45)
21 Cherry Cummins Winter Hill Alice 3 9:15:00 10.3, 9.8, 15.1 10.81 40, 41, 47, 41 (Avg:43)
6 Shan Symons Dashanda Serene Retired/DNE L2 8:42:00 9.3, 9.0 9.20 36, 40, 41 (Avg:40)
46 Jo Bailey Back Creek The Don Retired/DNE L2 10:50:00 7.9, 6.8 7.38 39, 42, 50 (Avg:46)
2 Emma Broome Raymar Aisha Withdrawn L1 0:00:00 - - 36, 55 (Avg:55)
4 Elaine Kirby Turingal Park Nicholas Withdrawn L1 0:00:00 - - 38, 54 (Avg:54)
15 Susan Woodward Tallawarra Miracle Lame L1 0:00:00 10.5 - 38, 41 (Avg:41)
Junior
17 Josephine Jansen Windaroo Devina Glamour 1 (BC) 7:53:00 11.9, 11.7, 17.6 12.68 36, 44, 47, 50 (Avg:47)
22 Annabelle Cummins Macquarie Park Banjo Retired/DNE L2 7:56:00 10.3, 9.8 10.08 36, 42, 52 (Avg:47)